^^
Meteo Knjazevac Station Historical Data
Daily Summary for December 26, 2021 Units:  English    Metric   Both
Daily Weekly Monthly Yearly Custom
  High: Low: Average:
Temperature: 52.7 °F 47.8 °F 50.6 °F
Dew Point: 44.5 °F 41.3 °F 42.7 °F
Humidity: 88% 65% 75%
Wind Speed: 9mph 0mph 4.5mph
Wind Gust: 17mph - -
Wind- - SE
Pressure: 29.93 in 29.89 in -
Precipitation: 0.05 in    
Historical Graphs
 
 
Tabular Data for December 26, 2021
Time Temperature Dew Point Pressure Wind Wind Speed Wind Gust Humidity Rainfall Rate (Hourly) solar Conditions
00:00 52.7 °F 41.3 °F 29.93 in SSE 3 mph 9 mph 65% 0.00 in 0 W/m2
00:10 52.5 °F 41.9 °F 29.93 in South 1 mph 7 mph 67% 0.00 in 0 W/m2
00:20 52.5 °F 41.4 °F 29.93 in SSE 5 mph 12 mph 66% 0.00 in 0 W/m2
00:30 52.3 °F 41.7 °F 29.92 in SE 6 mph 10 mph 67% 0.00 in 0 W/m2
00:40 52.3 °F 41.3 °F 29.92 in SE 6 mph 12 mph 66% 0.00 in 0 W/m2
00:50 52.2 °F 41.5 °F 29.92 in SE 6 mph 10 mph 67% 0.00 in 0 W/m2
01:00 52.2 °F 41.5 °F 29.92 in SE 5 mph 8 mph 67% 0.00 in 0 W/m2
01:10 52.2 °F 41.5 °F 29.92 in SE 7 mph 14 mph 67% 0.00 in 0 W/m2
01:20 52 °F 41.4 °F 29.92 in SE 3 mph 11 mph 67% 0.00 in 0 W/m2
01:30 52 °F 41.4 °F 29.92 in SE 3 mph 8 mph 67% 0.00 in 0 W/m2
01:40 51.8 °F 41.6 °F 29.92 in SSE 2 mph 5 mph 68% 0.00 in 0 W/m2
01:50 51.8 °F 41.6 °F 29.92 in SSE 3 mph 7 mph 68% 0.00 in 0 W/m2
02:00 52 °F 41.4 °F 29.92 in SE 3 mph 10 mph 67% 0.00 in 0 W/m2
02:10 52.2 °F 41.5 °F 29.92 in SE 6 mph 11 mph 67% 0.00 in 0 W/m2
02:20 52.2 °F 41.5 °F 29.91 in SE 6 mph 10 mph 67% 0.00 in 0 W/m2
02:30 52 °F 41.4 °F 29.91 in SE 5 mph 12 mph 67% 0.00 in 0 W/m2
02:40 52 °F 41.4 °F 29.90 in SE 5 mph 9 mph 67% 0.00 in 0 W/m2
02:50 51.8 °F 41.6 °F 29.90 in ESE 6 mph 13 mph 68% 0.00 in 0 W/m2
03:00 51.6 °F 41.4 °F 29.90 in ESE 7 mph 13 mph 68% 0.00 in 0 W/m2
03:10 51.8 °F 41.6 °F 29.90 in ESE 7 mph 10 mph 68% 0.00 in 0 W/m2
03:20 52 °F 41.7 °F 29.90 in ESE 6 mph 12 mph 68% 0.00 in 0 W/m2
03:30 52 °F 41.4 °F 29.89 in SE 7 mph 16 mph 67% 0.00 in 0 W/m2
03:40 51.9 °F 41.6 °F 29.89 in SE 8 mph 16 mph 68% 0.00 in 0 W/m2
03:50 51.6 °F 41.8 °F 29.89 in ESE 6 mph 13 mph 69% 0.00 in 0 W/m2
04:00 51.6 °F 42.2 °F 29.90 in ESE 7 mph 12 mph 70% 0.00 in 0 W/m2
04:10 51.4 °F 42.7 °F 29.90 in ESE 7 mph 12 mph 72% 0.00 in 0 W/m2
04:20 51.3 °F 42.5 °F 29.90 in ESE 7 mph 14 mph 72% 0.00 in 0 W/m2
04:30 51.1 °F 42.7 °F 29.89 in ESE 8 mph 14 mph 73% 0.00 in 0 W/m2
04:40 50.9 °F 42.6 °F 29.89 in ESE 7 mph 17 mph 73% 0.00 in 0 W/m2
04:50 50.9 °F 42.6 °F 29.89 in ESE 9 mph 15 mph 73% 0.00 in 0 W/m2
05:00 50.9 °F 42.6 °F 29.89 in SE 6 mph 13 mph 73% 0.00 in 0 W/m2
05:10 50.6 °F 42.7 °F 29.89 in ESE 7 mph 13 mph 74% 0.00 in 0 W/m2
05:20 50.4 °F 43.1 °F 29.89 in ESE 8 mph 12 mph 76% 0.00 in 0 W/m2
05:30 50.2 °F 43.6 °F 29.90 in SE 7 mph 14 mph 78% 0.00 in 0 W/m2
05:40 50 °F 43.7 °F 29.90 in ESE 7 mph 13 mph 79% 0.00 in 0 W/m2
05:50 49.6 °F 43.4 °F 29.91 in ESE 5 mph 12 mph 79% 0.00 in 0 W/m2
06:00 49.6 °F 43.7 °F 29.90 in SSE 3 mph 9 mph 80% 0.00 in 0 W/m2
06:10 49.3 °F 43.7 °F 29.91 in SW 1 mph 5 mph 81% 0.00 in 0 W/m2
06:20 49.1 °F 43.5 °F 29.91 in SW 2 mph 6 mph 81% 0.00 in 0 W/m2
06:30 48.7 °F 43.8 °F 29.91 in Calm   6 mph 83% 0.00 in 0 W/m2
06:40 48.7 °F 43.8 °F 29.91 in SSE 2 mph 7 mph 83% 0.01 in 0 W/m2
06:50 48.6 °F 43.9 °F 29.91 in Calm   5 mph 84% 0.01 in 0 W/m2
07:00 48.4 °F 44.1 °F 29.92 in SE 3 mph 10 mph 85% 0.00 in 0 W/m2
07:10 48.2 °F 44.2 °F 29.92 in Calm   4 mph 86% 0.00 in 0 W/m2
07:20 48 °F 44 °F 29.92 in NW 2 mph 5 mph 86% 0.00 in 1 W/m2
07:30 48 °F 44 °F 29.92 in SE 1 mph 6 mph 86% 0.00 in 2 W/m2
07:40 47.8 °F 44.5 °F 29.92 in North 1 mph 6 mph 88% 0.01 in 3 W/m2
07:50 47.8 °F 44.5 °F 29.92 in East 6 mph 9 mph 88% 0.00 in 5 W/m2
08:00 47.8 °F 44.5 °F 29.92 in ESE 3 mph 7 mph 88% 0.00 in 9 W/m2
08:10 47.8 °F 44.5 °F 29.93 in NNE 1 mph 6 mph 88% 0.00 in 11 W/m2
08:20 47.8 °F 44.5 °F 29.93 in SSE 2 mph 7 mph 88% 0.00 in 14 W/m2
08:30 47.8 °F 44.5 °F 29.92 in South 3 mph 7 mph 88% 0.00 in 17 W/m2
08:40 47.8 °F 44.5 °F 29.92 in South 2 mph 5 mph 88% 0.00 in 26 W/m2
Knjazevac, Serbia
Compliments of Weather Underground - 2 mb